Time;durP1;ratioP1;P1;durP2;ratioP2;P2;SDS_P1;SDS_P2;PMS_P1;PMS_P2;Temp;Humidity;BMP_temperature;BMP_pressure;BME280_temperature;BME280_humidity;BME280_pressure;Samples;Min_cycle;Max_cycle;Signal;HPM_P1;HPM_P2
2023/09/27 00:30:03;;;;;;;26.50;23.60;;;15.20;99.90;;;;;;4241557;28;20052;-60
2023/09/27 00:32:28;;;;;;;27.30;24.52;;;15.10;99.90;;;;;;5041827;28;20041;-60
2023/09/27 00:34:54;;;;;;;28.27;25.25;;;15.10;99.90;;;;;;5040205;28;20048;-60
2023/09/27 00:37:20;;;;;;;27.58;24.77;;;15.10;99.90;;;;;;5043226;28;20180;-60
2023/09/27 00:39:45;;;;;;;28.33;25.35;;;15.10;99.90;;;;;;5037492;28;20045;-61
2023/09/27 00:42:12;;;;;;;27.98;25.00;;;15.10;99.90;;;;;;5043158;28;20056;-63
2023/09/27 00:44:38;;;;;;;29.00;24.63;;;15.10;99.90;;;;;;5043478;28;20285;-62
2023/09/27 00:47:05;;;;;;;27.77;24.55;;;15.10;99.90;;;;;;5044050;28;20420;-60
2023/09/27 00:49:32;;;;;;;27.77;24.90;;;15.10;99.90;;;;;;5041648;28;20048;-60
2023/09/27 00:51:58;;;;;;;27.00;24.10;;;15.10;99.90;;;;;;5043738;28;20064;-61
2023/09/27 00:54:24;;;;;;;28.65;24.63;;;15.00;99.90;;;;;;5045019;28;20608;-62
2023/09/27 00:56:51;;;;;;;28.58;23.65;;;15.00;99.90;;;;;;5037051;28;20527;-61
2023/09/27 00:59:18;;;;;;;26.60;23.98;;;15.10;99.90;;;;;;5040299;28;20041;-61
2023/09/27 01:01:46;;;;;;;27.20;24.25;;;15.10;99.90;;;;;;5045263;28;20041;-61
2023/09/27 01:04:14;;;;;;;27.35;24.55;;;15.10;99.90;;;;;;5044626;28;20089;-62
2023/09/27 01:06:41;;;;;;;27.80;24.65;;;15.00;99.90;;;;;;5045329;28;20044;-62
2023/09/27 01:09:07;;;;;;;26.67;23.98;;;15.00;99.90;;;;;;5045387;28;20037;-62
2023/09/27 01:11:33;;;;;;;29.52;25.15;;;15.00;99.90;;;;;;5038130;28;20088;-62
2023/09/27 01:13:59;;;;;;;28.08;25.10;;;15.00;99.90;;;;;;5102790;22;20270;-61
2023/09/27 01:16:24;;;;;;;26.42;23.73;;;15.00;99.90;;;;;;5024460;28;20057;-61
2023/09/27 01:18:50;;;;;;;28.08;25.35;;;14.90;99.90;;;;;;5004696;28;20345;-61
2023/09/27 01:21:19;;;;;;;27.83;24.90;;;14.90;99.90;;;;;;5012266;28;20056;-62
2023/09/27 01:23:49;;;;;;;26.80;24.25;;;14.90;99.90;;;;;;5023099;28;20442;-62
2023/09/27 01:26:16;;;;;;;28.75;25.75;;;14.90;99.90;;;;;;5004706;28;20099;-61
2023/09/27 01:28:45;;;;;;;28.38;24.95;;;14.90;99.90;;;;;;5013214;28;20068;-61
2023/09/27 01:31:10;;;;;;;28.30;24.80;;;14.90;99.90;;;;;;5024397;28;20440;-62
2023/09/27 01:33:36;;;;;;;27.98;25.08;;;14.90;99.90;;;;;;5017222;28;20077;-61
2023/09/27 01:36:03;;;;;;;28.20;25.25;;;14.90;99.90;;;;;;4985805;28;20124;-62
2023/09/27 01:38:29;;;;;;;28.25;25.35;;;14.90;99.90;;;;;;5004368;28;20050;-61
2023/09/27 01:40:55;;;;;;;28.80;25.90;;;14.80;99.90;;;;;;5003062;28;20053;-61
2023/09/27 01:43:21;;;;;;;28.35;25.40;;;15.00;99.90;;;;;;5003698;28;20602;-62
2023/09/27 01:45:46;;;;;;;28.83;26.08;;;14.80;99.90;;;;;;5007382;28;20045;-61
2023/09/27 01:48:12;;;;;;;29.85;26.75;;;14.80;99.90;;;;;;5024777;28;20038;-61
2023/09/27 01:50:38;;;;;;;29.20;26.10;;;14.90;99.90;;;;;;5023390;28;20042;-61
2023/09/27 01:53:04;;;;;;;28.42;25.52;;;14.80;99.90;;;;;;5022822;28;20488;-62
2023/09/27 01:55:30;;;;;;;29.45;26.33;;;14.70;99.90;;;;;;5020583;28;20058;-61
2023/09/27 01:57:56;;;;;;;29.58;26.58;;;14.70;99.90;;;;;;5008839;28;20060;-61
2023/09/27 02:00:22;;;;;;;29.90;26.75;;;14.70;99.90;;;;;;5010929;28;20600;-62
2023/09/27 02:02:50;;;;;;;30.08;27.08;;;14.70;99.90;;;;;;5022442;28;20042;-62
2023/09/27 02:05:17;;;;;;;29.33;26.27;;;14.60;99.90;;;;;;5005817;28;20046;-62
2023/09/27 02:07:42;;;;;;;29.52;26.45;;;14.60;99.90;;;;;;5023682;28;20040;-62
2023/09/27 02:10:09;;;;;;;29.75;26.05;;;14.60;99.90;;;;;;5021725;28;20045;-61
2023/09/27 02:12:36;;;;;;;28.85;25.98;;;14.60;99.90;;;;;;5023385;28;20045;-61
2023/09/27 02:15:03;;;;;;;30.55;27.25;;;14.50;99.90;;;;;;5022724;28;20053;-61
2023/09/27 02:17:28;;;;;;;29.77;26.58;;;14.50;99.90;;;;;;5021495;28;20403;-61
2023/09/27 02:19:55;;;;;;;28.77;25.75;;;14.40;99.90;;;;;;5006053;28;20129;-62
2023/09/27 02:22:20;;;;;;;30.23;27.25;;;14.40;99.90;;;;;;5023547;28;20041;-62
2023/09/27 02:24:47;;;;;;;28.63;25.67;;;14.40;99.90;;;;;;5023073;28;20381;-61
2023/09/27 02:27:14;;;;;;;30.50;27.23;;;14.30;99.90;;;;;;5015941;28;20054;-62
2023/09/27 02:29:43;;;;;;;33.75;28.63;;;14.30;99.90;;;;;;5002551;28;20061;-62
2023/09/27 02:32:09;;;;;;;31.77;28.30;;;14.30;99.90;;;;;;5023622;28;20048;-62
2023/09/27 02:34:35;;;;;;;31.05;27.92;;;14.40;99.90;;;;;;5022125;28;20440;-61
2023/09/27 02:37:02;;;;;;;39.05;27.85;;;14.30;99.90;;;;;;5022587;28;20085;-62
2023/09/27 02:39:28;;;;;;;32.67;28.52;;;14.30;99.90;;;;;;5004786;28;20099;-62
2023/09/27 02:41:56;;;;;;;31.15;27.63;;;14.30;99.90;;;;;;5022084;28;20073;-62
2023/09/27 02:44:22;;;;;;;30.65;27.55;;;14.30;99.90;;;;;;5022017;28;20038;-61
2023/09/27 02:46:48;;;;;;;32.58;29.17;;;14.20;99.90;;;;;;5022166;28;20140;-62
2023/09/27 02:49:14;;;;;;;31.70;28.38;;;14.20;99.90;;;;;;5023429;28;20120;-62
2023/09/27 02:51:40;;;;;;;31.08;27.70;;;14.10;99.90;;;;;;5021902;28;20132;-61
2023/09/27 02:54:06;;;;;;;32.40;29.05;;;14.10;99.90;;;;;;5022898;28;20059;-61
2023/09/27 02:56:32;;;;;;;32.25;28.88;;;14.10;99.90;;;;;;5015595;28;20523;-61
2023/09/27 02:58:57;;;;;;;31.35;28.15;;;14.10;99.90;;;;;;5000651;28;20050;-62
2023/09/27 03:01:24;;;;;;;32.72;29.20;;;14.10;99.90;;;;;;5022236;28;20037;-61
2023/09/27 03:03:51;;;;;;;34.50;30.20;;;14.00;99.90;;;;;;5025659;28;20075;-61
2023/09/27 03:06:17;;;;;;;33.35;29.90;;;14.00;99.90;;;;;;4992073;28;20124;-62
2023/09/27 03:08:43;;;;;;;34.08;30.50;;;14.20;99.90;;;;;;5025445;28;20112;-61
2023/09/27 03:11:12;;;;;;;33.42;29.98;;;14.10;99.90;;;;;;5025512;28;21155;-62
2023/09/27 03:13:39;;;;;;;35.00;31.23;;;13.90;99.90;;;;;;5025881;28;20037;-61
2023/09/27 03:16:05;;;;;;;33.88;30.52;;;13.90;99.90;;;;;;5024873;28;20060;-61
2023/09/27 03:18:31;;;;;;;35.70;31.85;;;13.90;99.90;;;;;;5027044;28;20041;-61
2023/09/27 03:21:00;;;;;;;34.92;31.33;;;13.90;99.90;;;;;;5026516;28;20053;-61
2023/09/27 03:23:27;;;;;;;36.00;32.38;;;13.90;99.90;;;;;;5024390;28;20041;-61
2023/09/27 03:25:53;;;;;;;36.95;33.28;;;13.90;99.90;;;;;;5024667;28;20050;-62
2023/09/27 03:28:18;;;;;;;37.35;33.20;;;14.00;99.90;;;;;;5025954;28;20044;-62
2023/09/27 03:30:47;;;;;;;37.40;33.47;;;13.90;99.90;;;;;;5025987;28;20042;-61
2023/09/27 03:33:13;;;;;;;36.67;32.63;;;13.90;99.90;;;;;;5007537;28;20049;-62
2023/09/27 03:35:38;;;;;;;36.03;32.22;;;13.90;99.90;;;;;;5025821;28;20203;-62
2023/09/27 03:38:05;;;;;;;36.13;32.33;;;13.90;99.90;;;;;;5008508;28;20574;-61
2023/09/27 03:40:31;;;;;;;35.55;31.77;;;13.80;99.90;;;;;;5023734;28;20049;-61
2023/09/27 03:42:57;;;;;;;36.65;32.80;;;13.90;99.90;;;;;;5024829;28;20048;-61
2023/09/27 03:45:23;;;;;;;36.92;33.10;;;13.90;99.90;;;;;;5025216;28;20037;-62
2023/09/27 03:47:48;;;;;;;38.60;34.60;;;13.90;99.90;;;;;;5025065;28;20159;-62
2023/09/27 03:50:14;;;;;;;37.35;33.42;;;14.10;99.90;;;;;;5025494;28;20439;-61
2023/09/27 03:52:43;;;;;;;38.28;34.25;;;13.90;99.90;;;;;;5007617;28;20550;-61
2023/09/27 03:55:10;;;;;;;38.85;34.85;;;13.80;99.90;;;;;;5025149;28;20049;-61
2023/09/27 03:57:36;;;;;;;40.20;35.08;;;13.80;99.90;;;;;;5016625;28;20155;-61
2023/09/27 04:00:06;;;;;;;39.15;34.95;;;13.80;99.90;;;;;;5005423;28;20069;-61
2023/09/27 04:02:32;;;;;;;38.78;34.58;;;13.80;99.90;;;;;;5005572;28;20057;-61
2023/09/27 04:04:58;;;;;;;40.33;35.97;;;13.80;99.90;;;;;;4987120;28;20069;-61
2023/09/27 04:07:24;;;;;;;38.67;34.63;;;14.00;99.90;;;;;;5005700;28;20120;-61
2023/09/27 04:09:50;;;;;;;38.75;34.58;;;13.70;99.90;;;;;;5003986;28;20129;-61
2023/09/27 04:12:15;;;;;;;39.75;35.58;;;13.70;99.90;;;;;;5005455;28;20552;-62
2023/09/27 04:14:41;;;;;;;40.15;35.85;;;13.70;99.90;;;;;;5006027;28;20049;-61
2023/09/27 04:17:07;;;;;;;38.60;34.58;;;14.20;99.90;;;;;;5006619;28;20050;-62
2023/09/27 04:19:33;;;;;;;40.00;35.05;;;13.70;99.90;;;;;;5006008;28;20034;-62
2023/09/27 04:21:59;;;;;;;39.38;35.38;;;13.60;99.90;;;;;;5005387;28;20464;-62
2023/09/27 04:24:25;;;;;;;38.85;34.95;;;13.70;99.90;;;;;;5005773;28;20073;-61
2023/09/27 04:26:51;;;;;;;40.30;36.30;;;13.60;99.90;;;;;;5005686;28;20068;-61
2023/09/27 04:29:16;;;;;;;39.90;35.60;;;13.60;99.90;;;;;;4987974;28;20049;-62
2023/09/27 04:31:42;;;;;;;39.42;35.03;;;13.60;99.90;;;;;;5005826;28;20049;-61
2023/09/27 04:34:07;;;;;;;40.58;36.17;;;13.60;99.90;;;;;;5004886;28;20455;-61
2023/09/27 04:36:33;;;;;;;41.25;36.95;;;13.60;99.90;;;;;;4987516;28;20066;-61
2023/09/27 04:38:59;;;;;;;40.00;35.88;;;13.60;99.90;;;;;;4987770;28;20050;-61
2023/09/27 04:41:25;;;;;;;41.40;36.13;;;13.50;99.90;;;;;;4986616;28;20180;-61
2023/09/27 04:43:50;;;;;;;40.63;36.42;;;13.50;99.90;;;;;;5005027;28;20497;-62
2023/09/27 04:46:18;;;;;;;40.15;36.05;;;13.50;99.90;;;;;;5004206;28;20169;-62
2023/09/27 04:48:44;;;;;;;39.58;35.33;;;13.50;99.90;;;;;;5005167;28;20034;-61
2023/09/27 04:51:10;;;;;;;39.63;34.70;;;13.40;99.90;;;;;;5004176;28;20759;-61
2023/09/27 04:53:37;;;;;;;40.45;35.72;;;13.40;99.90;;;;;;5005119;28;20203;-62
2023/09/27 04:56:06;;;;;;;40.15;35.78;;;13.70;99.90;;;;;;5006409;28;20120;-61
2023/09/27 04:58:32;;;;;;;42.05;37.45;;;13.40;99.90;;;;;;5015730;28;20048;-61
2023/09/27 05:00:58;;;;;;;42.45;38.05;;;13.40;99.90;;;;;;5018861;28;20049;-62
2023/09/27 05:03:23;;;;;;;43.70;38.25;;;13.40;99.90;;;;;;5006406;28;20064;-61
2023/09/27 05:05:49;;;;;;;42.22;37.65;;;13.40;99.90;;;;;;5024536;28;20084;-61
2023/09/27 05:08:15;;;;;;;40.72;36.45;;;13.30;99.90;;;;;;5022388;28;20047;-62
2023/09/27 05:10:40;;;;;;;43.05;38.22;;;13.30;99.90;;;;;;5015351;28;20077;-61
2023/09/27 05:13:06;;;;;;;42.67;38.15;;;13.20;99.90;;;;;;5003268;28;20108;-62
2023/09/27 05:15:32;;;;;;;43.00;38.38;;;13.30;99.90;;;;;;5017522;28;20063;-61
2023/09/27 05:17:58;;;;;;;42.65;38.08;;;13.30;99.90;;;;;;5009134;28;20046;-62
2023/09/27 05:20:24;;;;;;;42.75;38.25;;;13.30;99.90;;;;;;5014230;28;20056;-62
2023/09/27 05:22:51;;;;;;;42.47;37.97;;;13.30;99.90;;;;;;5004073;28;20038;-61
2023/09/27 05:25:17;;;;;;;42.10;37.75;;;13.30;99.90;;;;;;4969266;28;20042;-61
2023/09/27 05:27:43;;;;;;;41.90;37.58;;;13.30;99.90;;;;;;4985173;28;20129;-62
2023/09/27 05:30:12;;;;;;;42.35;37.72;;;13.30;99.90;;;;;;4986552;28;20045;-61
2023/09/27 05:32:37;;;;;;;42.63;38.22;;;13.30;99.90;;;;;;4986164;28;20497;-61
2023/09/27 05:35:04;;;;;;;43.80;39.05;;;13.20;99.90;;;;;;5013552;28;20506;-61
2023/09/27 05:37:31;;;;;;;42.97;38.45;;;13.20;99.90;;;;;;5004667;28;20081;-61
2023/09/27 05:39:57;;;;;;;45.28;40.28;;;13.20;99.90;;;;;;5022594;28;20459;-63
2023/09/27 05:42:23;;;;;;;45.30;40.40;;;13.20;99.90;;;;;;5024014;28;20041;-61
2023/09/27 05:44:49;;;;;;;43.22;38.63;;;13.20;99.90;;;;;;5022632;28;20498;-61
2023/09/27 05:47:15;;;;;;;43.88;39.08;;;13.20;99.90;;;;;;5021320;28;20041;-61
2023/09/27 05:49:42;;;;;;;46.33;38.95;;;13.20;99.90;;;;;;5012365;28;20037;-61
2023/09/27 05:52:12;;;;;;;43.97;39.38;;;13.30;99.90;;;;;;5012768;28;20065;-62
2023/09/27 05:54:39;;;;;;;44.35;39.70;;;13.30;99.90;;;;;;4985296;28;20088;-61
2023/09/27 05:57:06;;;;;;;43.33;38.83;;;13.40;99.90;;;;;;5011086;28;20041;-62
2023/09/27 05:59:33;;;;;;;44.55;39.80;;;13.40;99.90;;;;;;5012967;28;20049;-62
2023/09/27 06:01:58;;;;;;;44.97;40.22;;;13.50;99.90;;;;;;5012650;28;20046;-62
2023/09/27 06:04:24;;;;;;;43.47;38.90;;;13.50;99.90;;;;;;5007530;28;20064;-61
2023/09/27 06:06:50;;;;;;;42.70;38.17;;;13.80;99.90;;;;;;5015311;28;20085;-61
2023/09/27 06:09:17;;;;;;;42.83;38.45;;;13.70;99.90;;;;;;5003390;28;20046;-63
2023/09/27 06:11:43;;;;;;;41.83;37.35;;;13.70;99.90;;;;;;5023033;28;20041;-62
2023/09/27 06:14:11;;;;;;;43.88;37.92;;;13.80;99.90;;;;;;5022141;28;20504;-61
2023/09/27 06:16:39;;;;;;;42.55;37.95;;;13.90;99.90;;;;;;5022011;28;20049;-62
2023/09/27 06:19:04;;;;;;;42.85;38.42;;;13.90;99.90;;;;;;5022999;28;20048;-62
2023/09/27 06:21:30;;;;;;;41.70;37.47;;;13.90;99.90;;;;;;5004866;28;20049;-62
2023/09/27 06:23:56;;;;;;;41.85;37.55;;;13.90;99.90;;;;;;5023346;28;20535;-61
2023/09/27 06:26:21;;;;;;;43.35;38.80;;;14.00;99.90;;;;;;5021547;28;20060;-62
2023/09/27 06:28:47;;;;;;;42.75;38.22;;;14.10;99.90;;;;;;5006180;28;20056;-61
2023/09/27 06:31:15;;;;;;;42.70;38.20;;;14.00;99.90;;;;;;5005078;28;20046;-61
2023/09/27 06:33:43;;;;;;;45.65;38.22;;;14.10;99.90;;;;;;5022086;28;20038;-61
2023/09/27 06:36:10;;;;;;;42.33;37.95;;;14.10;99.90;;;;;;5023939;28;20041;-61
2023/09/27 06:38:36;;;;;;;42.45;38.08;;;14.40;99.90;;;;;;5023382;28;20053;-61
2023/09/27 06:41:02;;;;;;;42.47;37.75;;;14.20;99.90;;;;;;5018011;28;20464;-61
2023/09/27 06:43:30;;;;;;;41.40;37.13;;;14.30;99.90;;;;;;5011491;28;20054;-61
2023/09/27 06:45:56;;;;;;;43.70;37.00;;;14.30;99.90;;;;;;4990410;28;20085;-61
2023/09/27 06:48:23;;;;;;;39.95;35.75;;;14.40;99.90;;;;;;5010062;28;20135;-61
2023/09/27 06:50:49;;;;;;;40.90;36.80;;;14.30;99.90;;;;;;5010601;28;20041;-61
2023/09/27 06:53:16;;;;;;;41.45;36.90;;;14.40;99.90;;;;;;4995913;28;20045;-61
2023/09/27 06:55:45;;;;;;;41.22;37.03;;;14.40;99.90;;;;;;4994256;28;20045;-61
2023/09/27 06:58:13;;;;;;;43.47;38.97;;;14.30;99.90;;;;;;5011363;28;20080;-61
2023/09/27 07:00:42;;;;;;;44.13;39.45;;;14.40;99.90;;;;;;5010129;28;20053;-61
2023/09/27 07:03:07;;;;;;;40.38;36.15;;;14.40;99.90;;;;;;5023187;28;20037;-61
2023/09/27 07:05:34;;;;;;;41.28;36.80;;;14.40;99.90;;;;;;5004310;28;20723;-60
2023/09/27 07:08:00;;;;;;;40.08;35.78;;;14.50;99.90;;;;;;5023148;28;20045;-61
2023/09/27 07:10:25;;;;;;;41.08;36.75;;;14.50;99.90;;;;;;5019803;28;20155;-62
2023/09/27 07:12:52;;;;;;;42.40;38.03;;;14.40;99.90;;;;;;5003409;28;20042;-61
2023/09/27 07:15:18;;;;;;;41.17;36.72;;;14.50;99.90;;;;;;4984550;28;20094;-61
2023/09/27 07:17:44;;;;;;;39.55;35.65;;;14.60;99.90;;;;;;4985536;28;20089;-61
2023/09/27 07:23:14;;;;;;;37.53;33.50;;;14.80;99.90;;;;;;4958815;28;20485;-60
2023/09/27 07:25:41;;;;;;;36.95;33.05;;;14.90;99.90;;;;;;5002454;28;20131;-61
2023/09/27 07:28:07;;;;;;;39.45;35.15;;;15.00;99.90;;;;;;5002694;28;20071;-61
2023/09/27 07:30:33;;;;;;;38.50;34.45;;;15.00;99.90;;;;;;5003216;28;20128;-62
2023/09/27 07:33:00;;;;;;;37.05;33.35;;;15.10;99.90;;;;;;4985993;28;20034;-61
2023/09/27 07:35:29;;;;;;;36.30;32.53;;;15.10;99.90;;;;;;5002134;28;20050;-60
2023/09/27 07:37:55;;;;;;;38.22;34.22;;;15.80;99.90;;;;;;5003401;28;20046;-61
2023/09/27 07:40:21;;;;;;;38.08;34.28;;;15.20;99.90;;;;;;5002246;28;20408;-60
2023/09/27 07:42:48;;;;;;;38.15;34.30;;;15.30;99.90;;;;;;5001687;28;20444;-61
2023/09/27 07:45:22;;;;;;;36.80;32.63;;;15.40;99.90;;;;;;5007670;28;20041;-60
2023/09/27 07:47:52;;;;;;;;;;;15.50;99.90;;;;;;5015949;28;20342;-60
2023/09/27 07:50:30;;;;;;;36.70;32.95;;;15.50;99.90;;;;;;5017899;28;19921;-59
2023/09/27 07:52:55;;;;;;;37.00;33.22;;;15.50;99.90;;;;;;5018772;28;20046;-60
2023/09/27 07:55:21;;;;;;;37.58;33.65;;;15.50;99.90;;;;;;5014760;28;20042;-60
2023/09/27 07:57:49;;;;;;;37.53;33.72;;;15.50;99.90;;;;;;5014122;28;20069;-60
2023/09/27 08:00:19;;;;;;;38.33;34.35;;;15.60;99.90;;;;;;5025679;28;20132;-61
2023/09/27 08:02:50;;;;;;;38.08;34.00;;;15.60;99.90;;;;;;5025784;28;20049;-60
2023/09/27 08:05:16;;;;;;;36.78;33.17;;;15.60;99.90;;;;;;5025485;28;20399;-61
2023/09/27 08:07:42;;;;;;;37.15;33.33;;;15.70;99.90;;;;;;5024583;28;20041;-61
2023/09/27 08:10:11;;;;;;;38.00;33.60;;;15.70;99.90;;;;;;5025264;28;20455;-61
2023/09/27 08:12:38;;;;;;;37.50;33.70;;;15.80;99.90;;;;;;5025166;28;20045;-60
2023/09/27 08:15:06;;;;;;;37.30;33.60;;;15.80;99.90;;;;;;5026035;28;20060;-60
2023/09/27 08:17:32;;;;;;;35.97;32.28;;;15.90;99.90;;;;;;5026691;28;20053;-61
2023/09/27 08:19:59;;;;;;;36.60;33.00;;;15.90;99.90;;;;;;5025549;28;20056;-61
2023/09/27 08:22:24;;;;;;;36.78;32.90;;;15.90;99.90;;;;;;5007641;28;20049;-60
2023/09/27 08:24:50;;;;;;;35.35;31.60;;;15.90;99.90;;;;;;5024751;28;20141;-60
2023/09/27 08:27:17;;;;;;;38.65;34.33;;;15.90;99.90;;;;;;5025807;28;20103;-60
2023/09/27 08:29:43;;;;;;;37.13;33.20;;;15.90;99.90;;;;;;5024659;28;20044;-60
2023/09/27 08:32:09;;;;;;;35.95;32.13;;;16.00;99.90;;;;;;5025475;28;20049;-60
2023/09/27 08:34:35;;;;;;;37.65;33.72;;;16.00;99.90;;;;;;5025805;28;20117;-60
2023/09/27 08:37:01;;;;;;;38.67;34.45;;;16.10;99.90;;;;;;5024808;28;20116;-60
2023/09/27 08:39:27;;;;;;;36.15;32.50;;;16.20;99.90;;;;;;5024249;28;20068;-60
2023/09/27 08:41:57;;;;;;;35.63;32.03;;;16.30;99.90;;;;;;5025184;28;20056;-59
2023/09/27 08:44:24;;;;;;;39.65;32.90;;;16.50;99.90;;;;;;5025198;28;20048;-60
2023/09/27 08:46:50;;;;;;;36.63;32.72;;;16.70;99.90;;;;;;5024819;28;20377;-61
2023/09/27 08:49:17;;;;;;;35.33;31.42;;;16.90;99.90;;;;;;5007764;28;20056;-60
2023/09/27 08:51:45;;;;;;;33.50;30.17;;;17.10;99.90;;;;;;5025385;28;20037;-59
2023/09/27 08:54:12;;;;;;;33.30;29.77;;;17.30;99.90;;;;;;5023211;28;20055;-60
2023/09/27 08:56:38;;;;;;;33.25;28.85;;;17.40;99.90;;;;;;5000172;28;20046;-60
2023/09/27 08:59:04;;;;;;;32.85;28.48;;;17.60;99.90;;;;;;5024915;28;20108;-60
2023/09/27 09:01:33;;;;;;;30.58;27.27;;;18.00;99.90;;;;;;5014163;28;20130;-60
2023/09/27 09:03:59;;;;;;;30.80;27.63;;;18.50;99.90;;;;;;5021892;28;20087;-59
2023/09/27 09:06:27;;;;;;;31.02;26.25;;;19.00;99.90;;;;;;4987454;28;20129;-59
2023/09/27 09:08:52;;;;;;;30.00;25.80;;;19.50;99.90;;;;;;5002965;28;20046;-60
2023/09/27 09:11:20;;;;;;;27.50;24.77;;;19.80;99.90;;;;;;5013403;28;20560;-60
2023/09/27 09:14:05;;;;;;;28.00;25.10;;;19.80;99.90;;;;;;5023676;28;20054;-60
2023/09/27 09:16:39;;;;;;;26.90;24.02;;;20.30;99.90;;;;;;5005982;28;20057;-60
2023/09/27 09:19:25;;;;;;;26.83;24.13;;;20.70;99.90;;;;;;5024789;28;20611;-60
2023/09/27 09:22:09;;;;;;;28.10;23.77;;;20.90;99.90;;;;;;5005829;28;20179;-59
2023/09/27 09:24:43;;;;;;;27.83;23.50;;;20.70;99.90;;;;;;5015970;28;20462;-59
2023/09/27 09:27:15;;;;;;;30.73;23.90;;;20.50;99.90;;;;;;5012919;28;20103;-60
2023/09/27 09:29:52;;;;;;;27.83;24.17;;;20.50;99.90;;;;;;5018187;28;20300;-59
2023/09/27 09:32:26;;;;;;;27.02;24.23;;;20.50;99.90;;;;;;5017720;28;20646;-60
2023/09/27 09:34:54;;;;;;;27.73;24.83;;;20.50;99.90;;;;;;5003982;28;20042;-59
2023/09/27 09:37:27;;;;;;;28.92;25.83;;;20.40;99.90;;;;;;5003819;28;20081;-60
2023/09/27 09:40:05;;;;;;;27.10;24.20;;;20.20;99.90;;;;;;5002344;28;20104;-59
2023/09/27 09:42:34;;;;;;;28.85;25.77;;;20.10;99.90;;;;;;4988598;28;20045;-59
2023/09/27 09:45:12;;;;;;;27.88;24.92;;;20.00;99.90;;;;;;5022537;28;20041;-60
2023/09/27 09:47:43;;;;;;;28.27;24.95;;;19.90;99.90;;;;;;5005793;28;20037;-58
2023/09/27 09:50:20;;;;;;;26.90;24.08;;;19.80;99.90;;;;;;5006001;28;20081;-59
2023/09/27 09:52:57;;;;;;;27.95;25.05;;;19.70;99.90;;;;;;5023335;28;20463;-59
2023/09/27 09:55:29;;;;;;;27.95;25.02;;;19.60;99.90;;;;;;5021426;28;20088;-60
2023/09/27 09:58:20;;;;;;;30.38;25.20;;;19.50;99.90;;;;;;5013174;28;20180;-60
2023/09/27 10:00:52;;;;;;;27.92;24.75;;;19.50;99.90;;;;;;4984036;28;20053;-58
2023/09/27 10:03:20;;;;;;;29.58;26.48;;;19.40;99.90;;;;;;5002206;28;20053;-60
2023/09/27 10:05:50;;;;;;;27.83;25.00;;;19.40;99.90;;;;;;5003122;28;20100;-60
2023/09/27 10:08:17;;;;;;;28.27;25.42;;;19.30;99.90;;;;;;5003026;28;20825;-59
2023/09/27 10:10:43;;;;;;;26.92;24.20;;;19.40;99.90;;;;;;5008907;28;20049;-58
2023/09/27 10:13:10;;;;;;;30.05;25.33;;;19.40;99.90;;;;;;5018332;28;20527;-59
2023/09/27 10:15:37;;;;;;;29.55;24.83;;;19.50;99.90;;;;;;5023930;28;20061;-60
2023/09/27 10:18:21;;;;;;;30.48;25.80;;;19.50;99.90;;;;;;5023417;28;20096;-59
2023/09/27 10:21:06;;;;;;;29.00;25.87;;;19.50;99.90;;;;;;5023645;28;20049;-59
2023/09/27 10:23:47;;;;;;;29.05;25.48;;;19.40;99.90;;;;;;5023161;28;20429;-59
2023/09/27 10:26:20;;;;;;;26.15;23.35;;;19.40;99.90;;;;;;5023610;28;20454;-59
2023/09/27 10:29:01;;;;;;;27.08;24.20;;;19.50;99.90;;;;;;5022919;28;20072;-60
2023/09/27 10:31:27;;;;;;;25.35;22.50;;;19.90;99.90;;;;;;4989774;28;20061;-60
2023/09/27 10:33:53;;;;;;;23.10;20.77;;;20.20;99.90;;;;;;5023557;28;20037;-60
2023/09/27 10:36:18;;;;;;;26.63;20.70;;;20.60;99.90;;;;;;5022281;28;20048;-59
2023/09/27 10:38:47;;;;;;;24.48;18.25;;;20.80;99.90;;;;;;5017871;28;20800;-60
2023/09/27 10:41:31;;;;;;;22.60;18.58;;;20.80;99.90;;;;;;5017643;28;20042;-61
2023/09/27 10:43:57;;;;;;;19.98;16.73;;;20.90;99.90;;;;;;5022470;28;20084;-59
2023/09/27 10:46:22;;;;;;;20.10;15.25;;;20.90;99.90;;;;;;5022830;28;20111;-59
2023/09/27 10:49:00;;;;;;;20.98;17.73;;;20.90;99.90;;;;;;5022841;28;20431;-59
2023/09/27 10:51:26;;;;;;;21.50;17.55;;;21.00;99.90;;;;;;5023450;28;20050;-60
2023/09/27 10:53:53;;;;;;;22.58;17.27;;;20.90;99.90;;;;;;5004037;28;20053;-60
2023/09/27 10:56:19;;;;;;;17.90;15.93;;;20.90;99.90;;;;;;5016963;28;20046;-60
2023/09/27 10:58:45;;;;;;;20.90;18.00;;;21.00;99.90;;;;;;5011975;28;20045;-59
2023/09/27 11:01:14;;;;;;;24.67;17.92;;;21.00;99.90;;;;;;5004276;28;20049;-60
2023/09/27 11:03:40;;;;;;;25.73;19.17;;;21.10;99.90;;;;;;4985633;28;20095;-60
2023/09/27 11:06:09;;;;;;;23.63;18.50;;;21.10;99.90;;;;;;5002848;28;20046;-59
2023/09/27 11:08:35;;;;;;;22.00;18.98;;;21.00;99.90;;;;;;4985039;28;20053;-59
2023/09/27 11:11:01;;;;;;;25.30;19.83;;;20.90;99.90;;;;;;5003064;28;20108;-60
2023/09/27 11:13:29;;;;;;;23.15;19.83;;;20.90;99.90;;;;;;4985196;28;20061;-60
2023/09/27 11:16:09;;;;;;;21.08;18.65;;;21.00;99.90;;;;;;5003161;28;20068;-58
2023/09/27 11:18:36;;;;;;;23.75;20.45;;;21.10;99.90;;;;;;5014627;28;20076;-61
2023/09/27 11:21:08;;;;;;;21.63;18.45;;;21.20;99.90;;;;;;5023669;28;20040;-59
2023/09/27 11:23:56;;;;;;;20.52;18.20;;;21.20;99.90;;;;;;5026497;28;20068;-60
2023/09/27 11:26:26;;;;;;;22.17;18.02;;;21.50;99.90;;;;;;5026683;28;20056;-61
2023/09/27 11:28:58;;;;;;;22.63;18.10;;;21.80;99.90;;;;;;5017100;28;20086;-60
2023/09/27 11:31:26;;;;;;;19.35;17.27;;;21.90;99.90;;;;;;5021799;28;20063;-62
2023/09/27 11:33:52;;;;;;;20.75;17.20;;;22.10;99.90;;;;;;4995098;28;20052;-59
2023/09/27 11:36:17;;;;;;;22.27;18.10;;;22.20;99.90;;;;;;5010375;28;20124;-61
2023/09/27 11:38:50;;;;;;;19.63;17.52;;;22.10;99.90;;;;;;5017180;28;20477;-60
2023/09/27 11:41:18;;;;;;;21.02;17.38;;;22.00;99.90;;;;;;5006161;28;20050;-61
2023/09/27 11:43:45;;;;;;;20.17;16.92;;;21.90;99.90;;;;;;5007299;28;20050;-59
2023/09/27 11:46:11;;;;;;;21.02;17.10;;;22.00;99.90;;;;;;4988951;28;20053;-59
2023/09/27 11:48:37;;;;;;;17.40;15.30;;;22.00;99.90;;;;;;5011674;28;20077;-60
2023/09/27 11:51:04;;;;;;;17.85;15.43;;;22.00;99.90;;;;;;5015442;28;20073;-61
2023/09/27 11:53:30;;;;;;;18.35;14.70;;;22.20;99.90;;;;;;5014738;28;20038;-60
2023/09/27 11:55:56;;;;;;;17.98;13.85;;;22.10;99.90;;;;;;5015374;28;20132;-60
2023/09/27 11:58:23;;;;;;;17.17;13.63;;;22.10;99.90;;;;;;5019911;28;20124;-58
2023/09/27 12:00:49;;;;;;;17.33;14.07;;;22.10;99.90;;;;;;4997520;28;20038;-59
2023/09/27 12:03:14;;;;;;;14.70;13.07;;;22.00;99.90;;;;;;5026121;28;20046;-58
2023/09/27 12:05:40;;;;;;;15.80;12.13;;;22.00;99.90;;;;;;5024178;28;20397;-64
2023/09/27 12:08:06;;;;;;;14.90;12.73;;;22.00;99.90;;;;;;5010320;28;20062;-56
2023/09/27 12:10:32;;;;;;;14.38;12.27;;;22.00;99.90;;;;;;5005684;28;20089;-60
2023/09/27 12:12:58;;;;;;;14.43;11.82;;;22.00;99.90;;;;;;5005624;28;20077;-62
2023/09/27 12:15:24;;;;;;;17.60;12.77;;;22.00;99.90;;;;;;5006146;28;20069;-64
2023/09/27 12:17:49;;;;;;;16.05;13.35;;;21.90;99.90;;;;;;4988860;28;20050;-65
2023/09/27 12:20:15;;;;;;;17.23;12.95;;;21.80;99.90;;;;;;5006851;28;20042;-64
2023/09/27 12:22:41;;;;;;;15.35;12.05;;;21.70;99.90;;;;;;5005296;28;20045;-64
2023/09/27 12:25:07;;;;;;;13.90;12.50;;;21.70;99.90;;;;;;5005128;28;20046;-64
2023/09/27 12:27:33;;;;;;;14.48;12.07;;;21.60;99.90;;;;;;5006435;28;20061;-64
2023/09/27 12:29:59;;;;;;;14.50;12.38;;;21.60;99.90;;;;;;5004844;28;20046;-63
2023/09/27 12:32:25;;;;;;;14.27;11.50;;;21.60;99.90;;;;;;5006147;28;20428;-65
2023/09/27 12:34:51;;;;;;;13.90;12.15;;;21.60;99.90;;;;;;5006310;28;20056;-65
2023/09/27 12:37:17;;;;;;;14.57;11.48;;;21.70;99.90;;;;;;5005713;28;20396;-63
2023/09/27 12:39:43;;;;;;;15.45;11.82;;;21.90;99.90;;;;;;5004972;28;20056;-63
2023/09/27 12:42:09;;;;;;;16.27;11.75;;;22.00;99.90;;;;;;5005749;28;20425;-58
2023/09/27 12:44:35;;;;;;;14.00;11.75;;;22.10;99.90;;;;;;4987809;28;20046;-56
2023/09/27 12:47:01;;;;;;;13.52;12.13;;;22.00;99.90;;;;;;5005540;28;20045;-53
2023/09/27 12:49:27;;;;;;;15.50;12.73;;;22.00;99.90;;;;;;4971762;28;20046;-57
2023/09/27 12:51:52;;;;;;;14.80;13.18;;;22.00;99.90;;;;;;5005827;28;20068;-59
2023/09/27 12:54:22;;;;;;;17.02;12.02;;;22.00;99.90;;;;;;5004396;28;20046;-55
2023/09/27 12:56:48;;;;;;;15.57;12.35;;;21.90;99.90;;;;;;5017381;28;20104;-57
2023/09/27 12:59:14;;;;;;;16.08;13.52;;;21.90;99.90;;;;;;5012465;28;20057;-53
2023/09/27 13:01:39;;;;;;;16.58;13.13;;;22.00;99.90;;;;;;5022823;28;20041;-58